CheckWX is a tool to help pilots better visualize weather data.  It is not intended as a substitute for an official pre-flight weather briefing.

04:53:36 UTC

WIEE TAF
Minangkabau Airport
Minangkabau, Indonesia
TAF WIEE 172300Z 1800/1824 20005KT 9999 SCT020 TEMPO 1807/1811 1500 TSRA FEW015CB BKN017

Jun-18@
00:00 UTC

Jun-18 @ 00:00 UTC

Jun-19@
00:00 UTC

Jun-19 @ 00:00 UTC

TAF WIEE 172300Z 1800/1824 20005KT 9999 SCT020
Wind
  • 200° at 5 KTS
Cloud Levels
  • Scattered at 2,000' AGL

Jun-18@
07:00 UTC

Jun-18 @ 07:00 UTC

Jun-18@
11:00 UTC

Jun-18 @ 11:00 UTC

TEMPO 1807/1811 1500 TSRA FEW015CB BKN017

Temporary

Temporary Changes expected for less than half the time period

Conditions
Thunderstorm, Rain
Cloud Levels
  • Few at 1,500' AGL
  • Broken at 1,700' AGL